Time;durP1;ratioP1;P1;durP2;ratioP2;P2;SDS_P1;SDS_P2;PMS_P1;PMS_P2;Temp;Humidity;BMP_temperature;BMP_pressure;BME280_temperature;BME280_humidity;BME280_pressure;Samples;Min_cycle;Max_cycle;Signal;HPM_P1;HPM_P2
2022/09/18 00:11:27;;;;;;;;;;;;;;;;;;4894723;29;19927;-89
2022/09/18 00:13:52;;;;;;;;;;;;;;;;;;4892716;29;19912;-89
2022/09/18 00:16:17;;;;;;;;;;;;;;;;;;4894291;29;19919;-90
2022/09/18 00:18:43;;;;;;;;;;;;;;;;;;4894823;29;19912;-90
2022/09/18 00:21:11;;;;;;;;;;;;;;;;;;4894345;29;19994;-88
2022/09/18 00:23:36;;;;;;;;;;;;;;;;;;4895201;29;19919;-89
2022/09/18 00:26:01;;;;;;;;;;;;;;;;;;4894984;29;19919;-89
2022/09/18 00:28:29;;;;;;;;;;;;;;;;;;4900541;29;20297;-89
2022/09/18 00:30:54;;;;;;;;;;;;;;;;;;4893682;29;20374;-89
2022/09/18 00:33:22;;;;;;;;;;;;;;;;;;4896724;29;19926;-88
2022/09/18 00:35:48;;;;;;;;;;;;;;;;;;4901238;29;19915;-89
2022/09/18 00:38:13;;;;;;;;;;;;;;;;;;4889324;29;19990;-89
2022/09/18 00:40:38;;;;;;;;;;;;;;;;;;4892146;29;19915;-88
2022/09/18 00:43:03;;;;;;;;;;;;;;;;;;4888181;29;19930;-89
2022/09/18 00:45:28;;;;;;;;;;;;;;;;;;4886792;29;19963;-89
2022/09/18 00:47:54;;;;;;;;;;;;;;;;;;4883642;29;19954;-88
2022/09/18 00:50:19;;;;;;;;;;;;;;;;;;4885932;29;20031;-88
2022/09/18 00:52:44;;;;;;;;;;;;;;;;;;4886852;29;20018;-90
2022/09/18 00:55:09;;;;;;;;;;;;;;;;;;4881952;29;20398;-88
2022/09/18 00:57:34;;;;;;;;;;;;;;;;;;4888799;29;19972;-89
2022/09/18 01:00:00;;;;;;;;;;;;;;;;;;4894216;29;19923;-89
2022/09/18 01:02:25;;;;;;;;;;;;;;;;;;4895603;29;19922;-89
2022/09/18 01:04:50;;;;;;;;;;;;;;;;;;4887530;29;20002;-88
2022/09/18 01:07:15;;;;;;;;;;;;;;;;;;4889291;29;19922;-88
2022/09/18 01:09:41;;;;;;;;;;;;;;;;;;4888158;29;19944;-89
2022/09/18 01:12:06;;;;;;;;;;;;;;;;;;4884615;29;19920;-88
2022/09/18 01:14:31;;;;;;;;;;;;;;;;;;4889787;29;20272;-88
2022/09/18 01:16:56;;;;;;;;;;;;;;;;;;4894802;29;19915;-87
2022/09/18 01:19:21;;;;;;;;;;;;;;;;;;4894722;29;19928;-89
2022/09/18 01:21:47;;;;;;;;;;;;;;;;;;4884765;29;20346;-89
2022/09/18 01:24:12;;;;;;;;;;;;;;;;;;4893198;29;19920;-89
2022/09/18 01:26:37;;;;;;;;;;;;;;;;;;4892977;29;20342;-89
2022/09/18 01:29:02;;;;;;;;;;;;;;;;;;4889860;29;19915;-88
2022/09/18 01:31:30;;;;;;;;;;;;;;;;;;4893614;29;20350;-88
2022/09/18 01:33:55;;;;;;;;;;;;;;;;;;4893367;29;19934;-89
2022/09/18 01:36:23;;;;;;;;;;;;;;;;;;4896730;29;19998;-88
2022/09/18 01:38:48;;;;;;;;;;;;;;;;;;4902697;29;19915;-90
2022/09/18 01:41:13;;;;;;;;;;;;;;;;;;4894449;29;20408;-91
2022/09/18 01:43:38;;;;;;;;;;;;;;;;;;4897324;29;19955;-91
2022/09/18 01:46:04;;;;;;;;;;;;;;;;;;4897855;29;20400;-90
2022/09/18 01:48:29;;;;;;;;;;;;;;;;;;4897113;29;19919;-90
2022/09/18 01:50:54;;;;;;;;;;;;;;;;;;4888005;29;19927;-90
2022/09/18 01:53:19;;;;;;;;;;;;;;;;;;4891068;29;19919;-88
2022/09/18 01:55:44;;;;;;;;;;;;;;;;;;4885561;29;19915;-88
2022/09/18 01:58:10;;;;;;;;;;;;;;;;;;4883329;29;19920;-88
2022/09/18 02:00:35;;;;;;;;;;;;;;;;;;4888289;29;20445;-90
2022/09/18 02:03:00;;;;;;;;;;;;;;;;;;4880669;29;19923;-89
2022/09/18 02:05:26;;;;;;;;;;;;;;;;;;4882682;29;19920;-90
2022/09/18 02:07:51;;;;;;;;;;;;;;;;;;4881952;29;19919;-89
2022/09/18 02:10:16;;;;;;;;;;;;;;;;;;4882015;29;20157;-88
2022/09/18 02:12:41;;;;;;;;;;;;;;;;;;4880443;29;20020;-89
2022/09/18 02:15:08;;;;;;;;;;;;;;;;;;4881030;29;20141;-88
2022/09/18 02:17:33;;;;;;;;;;;;;;;;;;4880327;29;19916;-89
2022/09/18 02:19:58;;;;;;;;;;;;;;;;;;4879005;29;20002;-88
2022/09/18 02:22:23;;;;;;;;;;;;;;;;;;4886910;29;19988;-89
2022/09/18 02:24:48;;;;;;;;;;;;;;;;;;4878666;29;20521;-87
2022/09/18 02:27:14;;;;;;;;;;;;;;;;;;4884126;29;19990;-88
2022/09/18 02:29:39;;;;;;;;;;;;;;;;;;4879977;29;20014;-88
2022/09/18 02:32:04;;;;;;;;;;;;;;;;;;4883266;29;19927;-88
2022/09/18 02:34:29;;;;;;;;;;;;;;;;;;4881055;29;19915;-88
2022/09/18 02:36:54;;;;;;;;;;;;;;;;;;4879788;29;19950;-88
2022/09/18 02:39:19;;;;;;;;;;;;;;;;;;4880793;29;20002;-88
2022/09/18 02:41:45;;;;;;;;;;;;;;;;;;4883519;29;20002;-88
2022/09/18 02:44:10;;;;;;;;;;;;;;;;;;4878424;29;19916;-87
2022/09/18 02:46:36;;;;;;;;;;;;;;;;;;4881069;29;20371;-88
2022/09/18 02:49:03;;;;;;;;;;;;;;;;;;4883219;29;20176;-88
2022/09/18 02:51:28;;;;;;;;;;;;;;;;;;4881044;29;20480;-87
2022/09/18 02:53:53;;;;;;;;;;;;;;;;;;4883122;29;19964;-87
2022/09/18 02:56:20;;;;;;;;;;;;;;;;;;4883651;29;19916;-87
2022/09/18 02:58:45;;;;;;;;;;;;;;;;;;4881930;29;20370;-86
2022/09/18 03:01:10;;;;;;;;;;;;;;;;;;4880291;29;19922;-87
2022/09/18 03:03:35;;;;;;;;;;;;;;;;;;4881753;29;19919;-87
2022/09/18 03:06:00;;;;;;;;;;;;;;;;;;4879949;29;20022;-86
2022/09/18 03:08:26;;;;;;;;;;;;;;;;;;4883692;29;19915;-87
2022/09/18 03:10:51;;;;;;;;;;;;;;;;;;4880306;29;19927;-87
2022/09/18 03:13:16;;;;;;;;;;;;;;;;;;4879955;29;19923;-87
2022/09/18 03:15:41;;;;;;;;;;;;;;;;;;4878857;29;19958;-87
2022/09/18 03:18:06;;;;;;;;;;;;;;;;;;4882118;29;20414;-86
2022/09/18 03:20:32;;;;;;;;;;;;;;;;;;4880622;29;19963;-86
2022/09/18 03:22:57;;;;;;;;;;;;;;;;;;4879896;29;20326;-86
2022/09/18 03:25:22;;;;;;;;;;;;;;;;;;4881367;29;20366;-87
2022/09/18 03:27:47;;;;;;;;;;;;;;;;;;4884219;29;19971;-87
2022/09/18 03:30:12;;;;;;;;;;;;;;;;;;4879342;29;19919;-86
2022/09/18 03:32:38;;;;;;;;;;;;;;;;;;4887279;29;19923;-87
2022/09/18 03:35:03;;;;;;;;;;;;;;;;;;4880147;29;19922;-86
2022/09/18 03:37:28;;;;;;;;;;;;;;;;;;4880247;29;19944;-86
2022/09/18 03:39:53;;;;;;;;;;;;;;;;;;4879116;29;20409;-86
2022/09/18 03:42:18;;;;;;;;;;;;;;;;;;4884557;29;19955;-86
2022/09/18 03:44:43;;;;;;;;;;;;;;;;;;4882556;29;19915;-87
2022/09/18 03:47:09;;;;;;;;;;;;;;;;;;4879919;29;19919;-87
2022/09/18 03:49:34;;;;;;;;;;;;;;;;;;4881996;29;20390;-87
2022/09/18 03:51:59;;;;;;;;;;;;;;;;;;4882167;29;19931;-87
2022/09/18 03:54:25;;;;;;;;;;;;;;;;;;4878571;29;19954;-87
2022/09/18 03:56:50;;;;;;;;;;;;;;;;;;4885438;29;19915;-87
2022/09/18 03:59:15;;;;;;;;;;;;;;;;;;4877526;29;19916;-87
2022/09/18 04:01:41;;;;;;;;;;;;;;;;;;4883573;29;19915;-87
2022/09/18 04:04:06;;;;;;;;;;;;;;;;;;4882994;29;19919;-87
2022/09/18 04:06:31;;;;;;;;;;;;;;;;;;4883277;29;20367;-86
2022/09/18 04:08:56;;;;;;;;;;;;;;;;;;4877088;29;19919;-86
2022/09/18 04:11:21;;;;;;;;;;;;;;;;;;4883638;29;20314;-86
2022/09/18 04:13:46;;;;;;;;;;;;;;;;;;4885604;29;19916;-87
2022/09/18 04:16:12;;;;;;;;;;;;;;;;;;4883484;29;20374;-87
2022/09/18 04:18:37;;;;;;;;;;;;;;;;;;4884815;29;20034;-86
2022/09/18 04:21:02;;;;;;;;;;;;;;;;;;4881935;29;20394;-86
2022/09/18 04:23:27;;;;;;;;;;;;;;;;;;4883990;29;20015;-86
2022/09/18 04:25:52;;;;;;;;;;;;;;;;;;4882668;29;20293;-86
2022/09/18 04:28:18;;;;;;;;;;;;;;;;;;4883163;29;19923;-86
2022/09/18 04:30:43;;;;;;;;;;;;;;;;;;4884472;29;20006;-87
2022/09/18 04:33:09;;;;;;;;;;;;;;;;;;4886764;29;19976;-87
2022/09/18 04:35:34;;;;;;;;;;;;;;;;;;4888167;29;19923;-87
2022/09/18 04:37:59;;;;;;;;;;;;;;;;;;4886329;29;19923;-87
2022/09/18 04:40:24;;;;;;;;;;;;;;;;;;4882458;29;20354;-86
2022/09/18 04:42:49;;;;;;;;;;;;;;;;;;4884714;29;19923;-86
2022/09/18 04:45:14;;;;;;;;;;;;;;;;;;4885857;29;19919;-86
2022/09/18 04:47:40;;;;;;;;;;;;;;;;;;4886367;29;19916;-87
2022/09/18 04:50:07;;;;;;;;;;;;;;;;;;4886289;29;19924;-85
2022/09/18 04:52:32;;;;;;;;;;;;;;;;;;4886764;29;19924;-87
2022/09/18 04:54:58;;;;;;;;;;;;;;;;;;4885486;29;20010;-86
2022/09/18 04:57:23;;;;;;;;;;;;;;;;;;4886732;29;20029;-86
2022/09/18 04:59:48;;;;;;;;;;;;;;;;;;4886847;29;19923;-86
2022/09/18 05:02:13;;;;;;;;;;;;;;;;;;4882329;29;19920;-87
2022/09/18 05:04:38;;;;;;;;;;;;;;;;;;4889258;29;19991;-87
2022/09/18 05:07:06;;;;;;;;;;;;;;;;;;4881053;29;19923;-87
2022/09/18 05:09:32;;;;;;;;;;;;;;;;;;4890380;29;19938;-86
2022/09/18 05:11:57;;;;;;;;;;;;;;;;;;4879610;29;20390;-87
2022/09/18 05:14:22;;;;;;;;;;;;;;;;;;4883861;29;19923;-86
2022/09/18 05:16:47;;;;;;;;;;;;;;;;;;4883385;29;20392;-86
2022/09/18 05:19:12;;;;;;;;;;;;;;;;;;4884476;29;20002;-86
2022/09/18 05:21:38;;;;;;;;;;;;;;;;;;4882380;29;20281;-86
2022/09/18 05:24:03;;;;;;;;;;;;;;;;;;4881738;29;20114;-86
2022/09/18 05:26:29;;;;;;;;;;;;;;;;;;4886850;29;20401;-85
2022/09/18 05:28:55;;;;;;;;;;;;;;;;;;4882122;29;19915;-84
2022/09/18 05:31:20;;;;;;;;;;;;;;;;;;4887028;29;19943;-84
2022/09/18 05:33:45;;;;;;;;;;;;;;;;;;4886347;29;19915;-84
2022/09/18 05:36:10;;;;;;;;;;;;;;;;;;4882523;29;19975;-84
2022/09/18 05:38:35;;;;;;;;;;;;;;;;;;4882963;29;20410;-83
2022/09/18 05:41:01;;;;;;;;;;;;;;;;;;4880117;29;19923;-84
2022/09/18 05:43:26;;;;;;;;;;;;;;;;;;4883022;29;20305;-84
2022/09/18 05:45:51;;;;;;;;;;;;;;;;;;4885310;29;19979;-84
2022/09/18 05:48:16;;;;;;;;;;;;;;;;;;4880701;29;19916;-84
2022/09/18 05:50:42;;;;;;;;;;;;;;;;;;4886006;29;20377;-84
2022/09/18 05:53:07;;;;;;;;;;;;;;;;;;4883268;29;19923;-84
2022/09/18 05:55:34;;;;;;;;;;;;;;;;;;4882931;29;20221;-84
2022/09/18 05:57:59;;;;;;;;;;;;;;;;;;4878667;29;19926;-84
2022/09/18 06:00:24;;;;;;;;;;;;;;;;;;4884863;29;20289;-85
2022/09/18 06:02:49;;;;;;;;;;;;;;;;;;4885733;29;19920;-84
2022/09/18 06:05:15;;;;;;;;;;;;;;;;;;4882435;29;19919;-85
2022/09/18 06:07:40;;;;;;;;;;;;;;;;;;4889004;29;19915;-87
2022/09/18 06:10:05;;;;;;;;;;;;;;;;;;4885385;29;19934;-85
2022/09/18 06:12:30;;;;;;;;;;;;;;;;;;4884725;29;20001;-84
2022/09/18 06:14:55;;;;;;;;;;;;;;;;;;4885032;29;19931;-83
2022/09/18 06:17:21;;;;;;;;;;;;;;;;;;4886192;29;20418;-84
2022/09/18 06:19:46;;;;;;;;;;;;;;;;;;4883424;29;19923;-83
2022/09/18 06:22:11;;;;;;;;;;;;;;;;;;4888378;29;19924;-85
2022/09/18 06:24:36;;;;;;;;;;;;;;;;;;4880355;29;19944;-85
2022/09/18 06:27:01;;;;;;;;;;;;;;;;;;4884857;29;19930;-83
2022/09/18 06:29:26;;;;;;;;;;;;;;;;;;4883019;29;19915;-84
2022/09/18 06:31:52;;;;;;;;;;;;;;;;;;4880246;29;20006;-83
2022/09/18 06:34:17;;;;;;;;;;;;;;;;;;4881566;29;20647;-85
2022/09/18 06:36:42;;;;;;;;;;;;;;;;;;4887390;29;19926;-85
2022/09/18 06:39:07;;;;;;;;;;;;;;;;;;4880166;29;20010;-84
2022/09/18 06:41:32;;;;;;;;;;;;;;;;;;4886537;29;19939;-83
2022/09/18 06:43:58;;;;;;;;;;;;;;;;;;4884019;29;19963;-83
2022/09/18 06:46:23;;;;;;;;;;;;;;;;;;4883383;29;19915;-83
2022/09/18 06:48:48;;;;;;;;;;;;;;;;;;4882496;29;19926;-83
2022/09/18 06:51:13;;;;;;;;;;;;;;;;;;4883544;29;19938;-86
2022/09/18 06:53:39;;;;;;;;;;;;;;;;;;4880349;29;19962;-86
2022/09/18 06:56:04;;;;;;;;;;;;;;;;;;4885042;29;19923;-86
2022/09/18 06:58:29;;;;;;;;;;;;;;;;;;4880836;29;20006;-86
2022/09/18 07:00:54;;;;;;;;;;;;;;;;;;4881399;29;19966;-86
2022/09/18 07:03:19;;;;;;;;;;;;;;;;;;4878955;29;19923;-87
2022/09/18 07:05:45;;;;;;;;;;;;;;;;;;4885718;29;19919;-86
2022/09/18 07:08:10;;;;;;;;;;;;;;;;;;4879847;29;19920;-86
2022/09/18 07:10:35;;;;;;;;;;;;;;;;;;4879254;29;20000;-87
2022/09/18 07:13:01;;;;;;;;;;;;;;;;;;4882442;29;19934;-87
2022/09/18 07:15:26;;;;;;;;;;;;;;;;;;4883189;29;20552;-86
2022/09/18 07:17:51;;;;;;;;;;;;;;;;;;4880484;29;19930;-87
2022/09/18 07:20:17;;;;;;;;;;;;;;;;;;4887270;29;20383;-85
2022/09/18 07:22:42;;;;;;;;;;;;;;;;;;4880585;29;19984;-86
2022/09/18 07:25:07;;;;;;;;;;;;;;;;;;4881728;29;19926;-86
2022/09/18 07:27:32;;;;;;;;;;;;;;;;;;4883422;29;20533;-87
2022/09/18 07:29:58;;;;;;;;;;;;;;;;;;4880241;29;20032;-87
2022/09/18 07:32:23;;;;;;;;;;;;;;;;;;4886444;29;19926;-84
2022/09/18 07:34:48;;;;;;;;;;;;;;;;;;4879535;29;20142;-87
2022/09/18 07:37:14;;;;;;;;;;;;;;;;;;4882846;29;20142;-84
2022/09/18 07:39:39;;;;;;;;;;;;;;;;;;4877991;29;19927;-86
2022/09/18 07:42:04;;;;;;;;;;;;;;;;;;4883655;29;19924;-86
2022/09/18 07:44:33;;;;;;;;;;;;;;;;;;4880976;29;19930;-87
2022/09/18 07:46:58;;;;;;;;;;;;;;;;;;4884132;29;20164;-87
2022/09/18 07:49:23;;;;;;;;;;;;;;;;;;4876689;29;19916;-87
2022/09/18 07:51:48;;;;;;;;;;;;;;;;;;4881929;29;19919;-87
2022/09/18 07:54:13;;;;;;;;;;;;;;;;;;4875381;29;19920;-87
2022/09/18 07:56:38;;;;;;;;;;;;;;;;;;4885604;29;19915;-87
2022/09/18 07:59:03;;;;;;;;;;;;;;;;;;4880500;29;19915;-87
2022/09/18 08:01:29;;;;;;;;;;;;;;;;;;4883370;29;19915;-87
2022/09/18 08:03:54;;;;;;;;;;;;;;;;;;4877853;29;19920;-84
2022/09/18 08:06:19;;;;;;;;;;;;;;;;;;4885246;29;19915;-86
2022/09/18 08:08:44;;;;;;;;;;;;;;;;;;4885711;29;20344;-88
2022/09/18 08:11:09;;;;;;;;;;;;;;;;;;4886927;29;19919;-87
2022/09/18 08:13:35;;;;;;;;;;;;;;;;;;4878604;29;20011;-87
2022/09/18 08:16:00;;;;;;;;;;;;;;;;;;4897042;29;19916;-87
2022/09/18 08:18:25;;;;;;;;;;;;;;;;;;4904111;29;19923;-85
2022/09/18 08:20:50;;;;;;;;;;;;;;;;;;4897087;29;19923;-87
2022/09/18 08:23:15;;;;;;;;;;;;;;;;;;4895413;29;19923;-84
2022/09/18 08:25:41;;;;;;;;;;;;;;;;;;4893632;29;20023;-83
2022/09/18 08:28:06;;;;;;;;;;;;;;;;;;4881780;29;19919;-85
2022/09/18 08:30:31;;;;;;;;;;;;;;;;;;4875465;29;19915;-85
2022/09/18 08:32:57;;;;;;;;;;;;;;;;;;4882749;29;20318;-85
2022/09/18 08:35:22;;;;;;;;;;;;;;;;;;4880129;29;19930;-82
2022/09/18 08:37:48;;;;;;;;;;;;;;;;;;4890227;29;20162;-85
2022/09/18 08:40:13;;;;;;;;;;;;;;;;;;4882734;29;19962;-85
2022/09/18 08:42:38;;;;;;;;;;;;;;;;;;4881201;29;20024;-85
2022/09/18 08:45:04;;;;;;;;;;;;;;;;;;4883549;29;19919;-83
2022/09/18 08:47:30;;;;;;;;;;;;;;;;;;4884020;29;19927;-84
2022/09/18 08:49:56;;;;;;;;;;;;;;;;;;4883817;29;19927;-84
2022/09/18 08:52:24;;;;;;;;;;;;;;;;;;4883523;29;19923;-85
2022/09/18 08:54:50;;;;;;;;;;;;;;;;;;4883131;29;20002;-85
2022/09/18 08:57:15;;;;;;;;;;;;;;;;;;4887693;29;20338;-85
2022/09/18 08:59:40;;;;;;;;;;;;;;;;;;4894208;29;19916;-85
2022/09/18 09:02:05;;;;;;;;;;;;;;;;;;4892949;29;19923;-86
2022/09/18 09:04:30;;;;;;;;;;;;;;;;;;4896214;29;19916;-85
2022/09/18 09:06:55;;;;;;;;;;;;;;;;;;4890215;29;19922;-84
2022/09/18 09:09:21;;;;;;;;;;;;;;;;;;4890327;29;19922;-83
2022/09/18 09:11:46;;;;;;;;;;;;;;;;;;4896057;29;19923;-86
2022/09/18 09:14:11;;;;;;;;;;;;;;;;;;4891648;29;19919;-83
2022/09/18 09:16:37;;;;;;;;;;;;;;;;;;4891447;29;20370;-85
2022/09/18 09:19:02;;;;;;;;;;;;;;;;;;4886534;29;20002;-85
2022/09/18 09:21:28;;;;;;;;;;;;;;;;;;4894491;29;19976;-86
2022/09/18 09:23:53;;;;;;;;;;;;;;;;;;4891383;29;20404;-85
2022/09/18 09:26:18;;;;;;;;;;;;;;;;;;4885172;29;19920;-84
2022/09/18 09:28:43;;;;;;;;;;;;;;;;;;4886185;29;19915;-86
2022/09/18 09:31:09;;;;;;;;;;;;;;;;;;4888568;29;19926;-84
2022/09/18 09:33:34;;;;;;;;;;;;;;;;;;4890547;29;19923;-86
2022/09/18 09:36:01;;;;;;;;;;;;;;;;;;4891840;29;20507;-89
2022/09/18 09:38:26;;;;;;;;;;;;;;;;;;4895874;29;19919;-86
2022/09/18 09:40:51;;;;;;;;;;;;;;;;;;4886361;29;19923;-86
2022/09/18 09:43:17;;;;;;;;;;;;;;;;;;4894395;29;19955;-86
2022/09/18 09:45:42;;;;;;;;;;;;;;;;;;4893313;29;19926;-86
2022/09/18 09:48:07;;;;;;;;;;;;;;;;;;4896561;29;19922;-84
2022/09/18 09:50:32;;;;;;;;;;;;;;;;;;4890330;29;19920;-86
2022/09/18 09:52:57;;;;;;;;;;;;;;;;;;4889332;29;19931;-85
2022/09/18 09:55:23;;;;;;;;;;;;;;;;;;4888168;29;19920;-86
2022/09/18 09:57:48;;;;;;;;;;;;;;;;;;4888685;29;19923;-85
2022/09/18 10:00:16;;;;;;;;;;;;;;;;;;4889812;29;20278;-86
2022/09/18 10:02:42;;;;;;;;;;;;;;;;;;4892630;29;19915;-85
2022/09/18 10:05:07;;;;;;;;;;;;;;;;;;4879638;29;19930;-86
2022/09/18 10:07:32;;;;;;;;;;;;;;;;;;4881762;29;19945;-86
2022/09/18 10:09:57;;;;;;;;;;;;;;;;;;4881214;29;19928;-84
2022/09/18 10:12:22;;;;;;;;;;;;;;;;;;4883130;29;19924;-84
2022/09/18 10:14:47;;;;;;;;;;;;;;;;;;4883284;29;19974;-86
2022/09/18 10:17:13;;;;;;;;;;;;;;;;;;4883903;29;19919;-86
2022/09/18 10:19:38;;;;;;;;;;;;;;;;;;4877590;29;19986;-86
2022/09/18 10:22:03;;;;;;;;;;;;;;;;;;4880435;29;19942;-85
2022/09/18 10:24:28;;;;;;;;;;;;;;;;;;4883406;29;19924;-86
2022/09/18 10:26:54;;;;;;;;;;;;;;;;;;4888240;29;20374;-84
2022/09/18 10:29:19;;;;;;;;;;;;;;;;;;4890454;29;19942;-86
2022/09/18 10:31:44;;;;;;;;;;;;;;;;;;4888484;29;19970;-85
2022/09/18 10:34:09;;;;;;;;;;;;;;;;;;4889698;29;19916;-85
2022/09/18 10:36:34;;;;;;;;;;;;;;;;;;4890032;29;19924;-87
2022/09/18 10:38:59;;;;;;;;;;;;;;;;;;4877857;29;20331;-86
2022/09/18 10:41:25;;;;;;;;;;;;;;;;;;4883981;29;19919;-86
2022/09/18 10:43:50;;;;;;;;;;;;;;;;;;4880986;29;20006;-87
2022/09/18 10:46:15;;;;;;;;;;;;;;;;;;4886404;29;19926;-87
2022/09/18 10:48:40;;;;;;;;;;;;;;;;;;4888925;29;20298;-86
2022/09/18 10:51:05;;;;;;;;;;;;;;;;;;4887669;29;19930;-89
2022/09/18 10:53:30;;;;;;;;;;;;;;;;;;4891885;29;20457;-88
2022/09/18 10:55:56;;;;;;;;;;;;;;;;;;4892186;29;19963;-87
2022/09/18 10:58:21;;;;;;;;;;;;;;;;;;4894186;29;19944;-88
2022/09/18 11:00:46;;;;;;;;;;;;;;;;;;4889159;29;19919;-85
2022/09/18 11:03:11;;;;;;;;;;;;;;;;;;4889051;29;20592;-85
2022/09/18 11:05:37;;;;;;;;;;;;;;;;;;4892846;29;19966;-85
2022/09/18 11:08:02;;;;;;;;;;;;;;;;;;4889801;29;19985;-85
2022/09/18 11:10:27;;;;;;;;;;;;;;;;;;4883810;29;19988;-86
2022/09/18 11:12:52;;;;;;;;;;;;;;;;;;4875018;29;19976;-85
2022/09/18 11:15:17;;;;;;;;;;;;;;;;;;4873326;29;19924;-86
2022/09/18 11:17:42;;;;;;;;;;;;;;;;;;4878999;29;19924;-86
2022/09/18 11:20:08;;;;;;;;;;;;;;;;;;4874046;29;20421;-86
2022/09/18 11:22:33;;;;;;;;;;;;;;;;;;4875814;29;20014;-85
2022/09/18 11:24:58;;;;;;;;;;;;;;;;;;4886458;29;20289;-84
2022/09/18 11:27:23;;;;;;;;;;;;;;;;;;4889286;29;20333;-83
2022/09/18 11:29:49;;;;;;;;;;;;;;;;;;4884578;29;19945;-83
2022/09/18 11:32:24;;;;;;;;;;;;;;;;;;4889004;29;19924;-84
2022/09/18 11:34:49;;;;;;;;;;;;;;;;;;4883998;29;20505;-83
2022/09/18 11:37:14;;;;;;;;;;;;;;;;;;4893851;29;20010;-84
2022/09/18 11:39:40;;;;;;;;;;;;;;;;;;4884821;29;19930;-84
2022/09/18 11:42:05;;;;;;;;;;;;;;;;;;4886248;29;19955;-84
2022/09/18 11:44:30;;;;;;;;;;;;;;;;;;4886250;29;19966;-84
2022/09/18 11:46:56;;;;;;;;;;;;;;;;;;4890341;29;19919;-84
2022/09/18 11:49:21;;;;;;;;;;;;;;;;;;4884911;29;19927;-84
2022/09/18 11:51:46;;;;;;;;;;;;;;;;;;4888554;29;19955;-85
2022/09/18 11:54:11;;;;;;;;;;;;;;;;;;4886104;29;19923;-84
2022/09/18 11:56:36;;;;;;;;;;;;;;;;;;4885907;29;20014;-84
2022/09/18 11:59:02;;;;;;;;;;;;;;;;;;4883915;29;19927;-83
2022/09/18 12:01:27;;;;;;;;;;;;;;;;;;4890860;29;20649;-86
2022/09/18 12:03:52;;;;;;;;;;;;;;;;;;4888264;29;19919;-86
2022/09/18 12:06:23;;;;;;;;;;;;;;;;;;4888279;29;20343;-84
2022/09/18 12:08:49;;;;;;;;;;;;;;;;;;4883589;29;20245;-84
2022/09/18 12:11:14;;;;;;;;;;;;;;;;;;4888002;29;20002;-85
2022/09/18 12:13:40;;;;;;;;;;;;;;;;;;4886321;29;19919;-84
2022/09/18 12:16:05;;;;;;;;;;;;;;;;;;4890224;29;19966;-84
2022/09/18 12:18:30;;;;;;;;;;;;;;;;;;4883735;29;19950;-87
2022/09/18 12:20:55;;;;;;;;;;;;;;;;;;4876423;29;20722;-83
2022/09/18 12:23:20;;;;;;;;;;;;;;;;;;4870563;29;19920;-85
2022/09/18 12:25:46;;;;;;;;;;;;;;;;;;4875209;29;20365;-85
2022/09/18 12:28:11;;;;;;;;;;;;;;;;;;4877367;29;19927;-84
2022/09/18 12:30:36;;;;;;;;;;;;;;;;;;4877350;29;19923;-85
2022/09/18 12:33:01;;;;;;;;;;;;;;;;;;4873828;29;19923;-85
2022/09/18 12:35:27;;;;;;;;;;;;;;;;;;4891346;29;19928;-82
2022/09/18 12:37:52;;;;;;;;;;;;;;;;;;4883480;29;20019;-83
2022/09/18 12:40:17;;;;;;;;;;;;;;;;;;4883453;29;19924;-83
2022/09/18 12:42:42;;;;;;;;;;;;;;;;;;4888860;29;20006;-84
2022/09/18 12:45:08;;;;;;;;;;;;;;;;;;4889033;29;19919;-85
2022/09/18 12:47:33;;;;;;;;;;;;;;;;;;4888564;29;19926;-88
2022/09/18 12:49:58;;;;;;;;;;;;;;;;;;4889339;29;19919;-85
2022/09/18 12:52:26;;;;;;;;;;;;;;;;;;4885068;29;19919;-87
2022/09/18 12:54:51;;;;;;;;;;;;;;;;;;4890703;29;20286;-85
2022/09/18 12:57:16;;;;;;;;;;;;;;;;;;4885293;29;19985;-87
2022/09/18 12:59:44;;;;;;;;;;;;;;;;;;4888492;29;19916;-85
2022/09/18 13:02:17;;;;;;;;;;;;;;;;;;4886848;29;20302;-86
2022/09/18 13:04:44;;;;;;;;;;;;;;;;;;4889962;29;20362;-85
2022/09/18 13:10:21;;;;;;;;;;;;;;;;;;4871711;29;20044;-87
2022/09/18 13:18:25;;;;;;;;;;;;;;;;;;4836736;29;20454;-88
2022/09/18 13:21:15;;;;;;;;;;;;;;;;;;;;;
2022/09/18 13:34:42;;;;;;;;;;;;;;;;;;4841090;29;20752;-85
2022/09/18 13:45:50;;;;;;;;;;;;;;;;;;4836367;29;19927;-86
2022/09/18 13:48:15;;;;;;;;;;;;;;;;;;4831320;29;19925;-86
2022/09/18 13:53:41;;;;;;;;;;;;;;;;;;4796377;29;20439;-86
2022/09/18 13:56:09;;;;;;;;;;;;;;;;;;4827157;29;19976;-87
2022/09/18 13:58:34;;;;;;;;;;;;;;;;;;4832341;29;19920;-85
2022/09/18 14:01:08;;;;;;;;;;;;;;;;;;4834064;29;19921;-88
2022/09/18 14:03:36;;;;;;;;;;;;;;;;;;4834009;29;19924;-90
2022/09/18 16:07:18;;;;;;;;;;;;;;;;;;4925843;29;19931;-90
2022/09/18 16:09:47;;;;;;;;;;;;;;;;;;4924027;29;20391;-87
2022/09/18 16:20:34;;;;;;;;;;;;;;;;;;4867268;29;19960;-89
2022/09/18 19:43:53;;;;;;;;;;;;;;;;;;4920858;29;19962;-89
2022/09/18 19:46:18;;;;;;;;;;;;;;;;;;4930613;29;19922;-89
2022/09/18 19:48:44;;;;;;;;;;;;;;;;;;4932231;29;19931;-88
2022/09/18 19:51:09;;;;;;;;;;;;;;;;;;4926308;29;19951;-89
2022/09/18 19:53:34;;;;;;;;;;;;;;;;;;4910878;29;19919;-90
2022/09/18 19:55:59;;;;;;;;;;;;;;;;;;4918059;29;19919;-89
2022/09/18 19:58:26;;;;;;;;;;;;;;;;;;4914580;29;19911;-89
2022/09/18 20:00:51;;;;;;;;;;;;;;;;;;4916285;29;19923;-89
2022/09/18 20:03:16;;;;;;;;;;;;;;;;;;4919098;29;19971;-89
2022/09/18 20:05:41;;;;;;;;;;;;;;;;;;4917697;29;19916;-89
2022/09/18 20:08:07;;;;;;;;;;;;;;;;;;4920328;29;20291;-89
2022/09/18 20:10:32;;;;;;;;;;;;;;;;;;4917280;29;19915;-88
2022/09/18 20:12:58;;;;;;;;;;;;;;;;;;4918648;29;19923;-89
2022/09/18 20:15:23;;;;;;;;;;;;;;;;;;4898833;29;19911;-90
2022/09/18 20:17:48;;;;;;;;;;;;;;;;;;4925852;29;20002;-90
2022/09/18 20:20:13;;;;;;;;;;;;;;;;;;4916708;29;19926;-90
2022/09/18 20:22:38;;;;;;;;;;;;;;;;;;4906553;29;19911;-91
2022/09/18 20:25:04;;;;;;;;;;;;;;;;;;4923311;29;19998;-90
2022/09/18 20:27:31;;;;;;;;;;;;;;;;;;4916635;29;20069;-90
2022/09/18 20:29:56;;;;;;;;;;;;;;;;;;4917318;29;20381;-91
2022/09/18 20:32:22;;;;;;;;;;;;;;;;;;4923753;29;19962;-90
2022/09/18 20:34:47;;;;;;;;;;;;;;;;;;4923726;29;19943;-91
2022/09/18 20:37:12;;;;;;;;;;;;;;;;;;4922709;29;20021;-90
2022/09/18 20:39:37;;;;;;;;;;;;;;;;;;4924220;29;19950;-90
2022/09/18 20:42:02;;;;;;;;;;;;;;;;;;4921694;29;19962;-90
2022/09/18 20:44:28;;;;;;;;;;;;;;;;;;4917078;29;19919;-91
2022/09/18 20:46:56;;;;;;;;;;;;;;;;;;4920829;29;20400;-91
2022/09/18 20:49:22;;;;;;;;;;;;;;;;;;4915790;29;19919;-90
2022/09/18 20:51:48;;;;;;;;;;;;;;;;;;4919673;29;19950;-90
2022/09/18 20:54:13;;;;;;;;;;;;;;;;;;4925199;29;19947;-91
2022/09/18 20:56:42;;;;;;;;;;;;;;;;;;4918696;29;19967;-91
2022/09/18 20:59:09;;;;;;;;;;;;;;;;;;4900984;29;19915;-91
2022/09/18 21:01:36;;;;;;;;;;;;;;;;;;4919970;29;20388;-91
2022/09/18 21:04:01;;;;;;;;;;;;;;;;;;4928243;29;19932;-90
2022/09/18 21:06:27;;;;;;;;;;;;;;;;;;4912657;29;19915;-91
2022/09/18 21:08:52;;;;;;;;;;;;;;;;;;4918687;29;19915;-91
2022/09/18 21:11:17;;;;;;;;;;;;;;;;;;4917537;29;19954;-91
2022/09/18 21:13:46;;;;;;;;;;;;;;;;;;4918146;29;20594;-90
2022/09/18 21:16:11;;;;;;;;;;;;;;;;;;4924032;29;19915;-91
2022/09/18 21:18:38;;;;;;;;;;;;;;;;;;4916794;29;20412;-91
2022/09/18 21:21:03;;;;;;;;;;;;;;;;;;4923118;29;19929;-91
2022/09/18 21:26:13;;;;;;;;;;;;;;;;;;4913296;29;19926;-91
2022/09/18 21:28:38;;;;;;;;;;;;;;;;;;4916605;29;19915;-91
2022/09/18 21:31:06;;;;;;;;;;;;;;;;;;4927204;29;19914;-90
2022/09/18 21:33:35;;;;;;;;;;;;;;;;;;4926369;29;19927;-91
2022/09/18 21:36:00;;;;;;;;;;;;;;;;;;4923012;29;19915;-90
2022/09/18 21:38:26;;;;;;;;;;;;;;;;;;4915402;29;20058;-91
2022/09/18 21:40:53;;;;;;;;;;;;;;;;;;4918963;29;19911;-90
2022/09/18 21:43:20;;;;;;;;;;;;;;;;;;4918463;29;20587;-90
2022/09/18 21:45:48;;;;;;;;;;;;;;;;;;4915542;29;20297;-91
2022/09/18 21:48:13;;;;;;;;;;;;;;;;;;4899321;29;19923;-91
2022/09/18 21:50:39;;;;;;;;;;;;;;;;;;4915223;29;19915;-91
2022/09/18 21:53:04;;;;;;;;;;;;;;;;;;4916556;29;19947;-91
2022/09/18 21:55:37;;;;;;;;;;;;;;;;;;4916460;29;20669;-90
2022/09/18 21:58:02;;;;;;;;;;;;;;;;;;4926824;29;20029;-91
2022/09/18 22:00:27;;;;;;;;;;;;;;;;;;4924173;29;19954;-90
2022/09/18 22:02:53;;;;;;;;;;;;;;;;;;4919745;29;19919;-91
2022/09/18 22:05:18;;;;;;;;;;;;;;;;;;4916861;29;19946;-91
2022/09/18 22:07:44;;;;;;;;;;;;;;;;;;4916307;29;19949;-91
2022/09/18 22:10:09;;;;;;;;;;;;;;;;;;4923793;29;19922;-91
2022/09/18 22:12:37;;;;;;;;;;;;;;;;;;4917202;29;20014;-90
2022/09/18 22:15:02;;;;;;;;;;;;;;;;;;4922015;29;19915;-91
2022/09/18 22:17:28;;;;;;;;;;;;;;;;;;4899485;29;19978;-91
2022/09/18 22:19:55;;;;;;;;;;;;;;;;;;4919775;29;19965;-91
2022/09/18 22:22:20;;;;;;;;;;;;;;;;;;4922766;29;19911;-91
2022/09/18 22:24:45;;;;;;;;;;;;;;;;;;4906966;29;20369;-91
2022/09/18 22:27:11;;;;;;;;;;;;;;;;;;4916573;29;20684;-91
2022/09/18 22:29:37;;;;;;;;;;;;;;;;;;4922197;29;19928;-91
2022/09/18 22:32:02;;;;;;;;;;;;;;;;;;4931222;29;19941;-91
2022/09/18 22:34:27;;;;;;;;;;;;;;;;;;4924942;29;19915;-91
2022/09/18 22:36:52;;;;;;;;;;;;;;;;;;4925625;29;19919;-90
2022/09/18 22:39:17;;;;;;;;;;;;;;;;;;4919051;29;20532;-91
2022/09/18 22:41:43;;;;;;;;;;;;;;;;;;4916806;29;19919;-90
2022/09/18 22:44:08;;;;;;;;;;;;;;;;;;4917619;29;20022;-90
2022/09/18 22:46:33;;;;;;;;;;;;;;;;;;4918927;29;19935;-91
2022/09/18 22:48:58;;;;;;;;;;;;;;;;;;4918505;29;20055;-90